createdAt,value
2018-02-25T00:01:27.666Z,6.68
2018-02-25T00:03:54.348Z,6.60
2018-02-25T00:06:21.111Z,6.25
2018-02-25T00:08:47.842Z,7.25
2018-02-25T00:11:14.545Z,5.97
2018-02-25T00:13:41.269Z,6.72
2018-02-25T00:16:08.027Z,6.12
2018-02-25T00:18:34.795Z,6.55
2018-02-25T00:21:01.510Z,7.05
2018-02-25T00:23:28.275Z,6.25
2018-02-25T00:25:54.992Z,6.40
2018-02-25T00:28:21.678Z,7.07
2018-02-25T00:30:48.370Z,6.30
2018-02-25T00:33:15.048Z,6.80
2018-02-25T00:35:41.789Z,6.53
2018-02-25T00:38:08.579Z,6.28
2018-02-25T00:40:35.257Z,6.20
2018-02-25T00:43:01.944Z,6.93
2018-02-25T00:45:28.634Z,6.87
2018-02-25T00:47:55.328Z,7.00
2018-02-25T00:50:22.006Z,8.27
2018-02-25T00:52:48.754Z,6.72
2018-02-25T00:55:15.438Z,6.18
2018-02-25T00:57:42.220Z,7.75
2018-02-25T01:00:08.957Z,7.18
2018-02-25T01:02:35.659Z,6.70
2018-02-25T01:05:02.388Z,6.85
2018-02-25T01:07:29.125Z,6.72
2018-02-25T01:09:55.842Z,7.40
2018-02-25T01:12:22.626Z,7.03
2018-02-25T01:14:49.372Z,6.65
2018-02-25T01:17:16.048Z,7.25
2018-02-25T01:19:42.792Z,6.80
2018-02-25T01:22:09.454Z,5.87
2018-02-25T01:24:36.279Z,7.00
2018-02-25T01:27:02.982Z,7.40
2018-02-25T01:29:29.691Z,7.57
2018-02-25T01:31:56.505Z,7.03
2018-02-25T01:34:23.219Z,6.70
2018-02-25T01:36:50.005Z,7.32
2018-02-25T01:39:16.673Z,6.60
2018-02-25T01:41:43.367Z,7.18
2018-02-25T01:44:10.118Z,8.07
2018-02-25T01:46:36.828Z,7.68
2018-02-25T01:49:03.532Z,7.75
2018-02-25T01:51:30.262Z,6.45
2018-02-25T01:53:56.976Z,7.75
2018-02-25T01:56:23.701Z,7.80
2018-02-25T01:58:50.408Z,8.10
2018-02-25T02:01:17.141Z,7.37
2018-02-25T02:03:43.995Z,7.80
2018-02-25T02:06:10.702Z,7.55
2018-02-25T02:08:37.418Z,7.60
2018-02-25T02:11:04.463Z,7.72
2018-02-25T02:13:31.174Z,7.20
2018-02-25T02:15:57.889Z,7.97
2018-02-25T02:18:24.578Z,7.12
2018-02-25T02:20:51.314Z,8.55
2018-02-25T02:23:18.474Z,7.30
2018-02-25T02:25:45.310Z,7.32
2018-02-25T02:28:12.009Z,7.60
2018-02-25T02:30:38.749Z,8.77
2018-02-25T02:33:05.401Z,7.40
2018-02-25T02:35:32.172Z,7.57
2018-02-25T02:37:58.854Z,8.30
2018-02-25T02:40:25.582Z,8.95
2018-02-25T02:42:52.270Z,7.95
2018-02-25T02:45:18.983Z,8.13
2018-02-25T02:47:45.679Z,7.78
2018-02-25T02:50:12.452Z,7.75
2018-02-25T02:52:39.160Z,8.35
2018-02-25T02:55:05.871Z,8.73
2018-02-25T02:57:32.717Z,8.73
2018-02-25T02:59:59.441Z,8.68
2018-02-25T03:02:26.462Z,8.55
2018-02-25T03:04:53.168Z,8.18
2018-02-25T03:07:20.243Z,8.07
2018-02-25T03:09:46.986Z,8.85
2018-02-25T03:12:13.774Z,7.87
2018-02-25T03:14:40.470Z,8.38
2018-02-25T03:17:07.174Z,8.13
2018-02-25T03:19:34.009Z,9.50
2018-02-25T03:22:00.742Z,8.68
2018-02-25T03:24:27.616Z,8.98
2018-02-25T03:26:54.448Z,9.25
2018-02-25T03:29:21.122Z,7.65
2018-02-25T03:31:47.870Z,9.48
2018-02-25T03:34:14.578Z,8.60
2018-02-25T03:36:41.310Z,8.80
2018-02-25T03:39:08.012Z,8.77
2018-02-25T03:41:34.836Z,9.15
2018-02-25T03:44:01.553Z,8.65
2018-02-25T03:46:28.354Z,10.32
2018-02-25T03:48:55.221Z,9.70
2018-02-25T03:51:21.918Z,9.63
2018-02-25T03:53:48.643Z,8.98
2018-02-25T03:56:15.487Z,10.32
2018-02-25T03:58:42.234Z,10.02
2018-02-25T04:01:08.946Z,8.85
2018-02-25T04:03:35.717Z,9.27
2018-02-25T04:06:03.120Z,9.50
2018-02-25T04:08:29.842Z,9.10
2018-02-25T04:10:56.528Z,10.30
2018-02-25T04:13:23.561Z,10.23
2018-02-25T04:15:50.254Z,9.80
2018-02-25T04:18:16.914Z,9.45
2018-02-25T04:20:43.840Z,10.15
2018-02-25T04:23:10.636Z,9.88
2018-02-25T04:25:37.392Z,10.40
2018-02-25T04:28:04.168Z,11.05
2018-02-25T04:30:31.315Z,9.07
2018-02-25T04:32:58.042Z,9.70
2018-02-25T04:35:24.790Z,11.80
2018-02-25T04:37:51.523Z,10.68
2018-02-25T04:40:18.254Z,10.75
2018-02-25T04:42:45.065Z,11.35
2018-02-25T04:45:12.038Z,10.45
2018-02-25T04:47:38.827Z,10.85
2018-02-25T04:50:05.613Z,9.95
2018-02-25T04:52:32.336Z,12.65
2018-02-25T04:54:59.007Z,11.32
2018-02-25T04:57:25.699Z,10.73
2018-02-25T04:59:52.406Z,11.60
2018-02-25T05:02:19.164Z,11.52
2018-02-25T05:04:45.872Z,11.48
2018-02-25T05:07:12.644Z,11.05
2018-02-25T05:09:39.412Z,12.27
2018-02-25T05:12:06.151Z,11.80
2018-02-25T05:14:32.943Z,11.45
2018-02-25T05:16:59.732Z,12.05
2018-02-25T05:19:26.461Z,12.35
2018-02-25T05:21:53.181Z,11.85
2018-02-25T05:24:19.961Z,11.18
2018-02-25T05:26:46.685Z,11.57
2018-02-25T05:29:13.367Z,11.27
2018-02-25T05:31:40.072Z,12.48
2018-02-25T05:34:06.864Z,13.15
2018-02-25T05:36:33.593Z,12.43
2018-02-25T05:39:00.291Z,12.48
2018-02-25T05:41:27.044Z,13.98
2018-02-25T05:43:53.805Z,12.95
2018-02-25T05:46:20.631Z,13.93
2018-02-25T05:48:47.333Z,11.88
2018-02-25T05:51:14.144Z,13.40
2018-02-25T05:53:42.671Z,12.52
2018-02-25T05:56:09.394Z,12.15
2018-02-25T05:58:36.086Z,12.35
2018-02-25T06:01:02.807Z,12.07
2018-02-25T06:03:29.536Z,10.98
2018-02-25T06:05:56.294Z,13.02
2018-02-25T06:08:23.051Z,12.45
2018-02-25T06:10:49.826Z,12.68
2018-02-25T06:13:16.591Z,13.70
2018-02-25T06:15:43.358Z,12.65
2018-02-25T06:18:10.161Z,14.82
2018-02-25T06:20:36.905Z,14.45
2018-02-25T06:23:03.927Z,13.85
2018-02-25T06:25:30.692Z,13.40
2018-02-25T06:27:57.436Z,14.35
2018-02-25T06:30:24.236Z,13.80
2018-02-25T06:32:50.948Z,13.35
2018-02-25T06:35:18.722Z,13.85
2018-02-25T06:37:45.842Z,15.18
2018-02-25T06:40:12.571Z,14.10
2018-02-25T06:42:39.388Z,13.95
2018-02-25T06:45:06.202Z,14.55
2018-02-25T06:47:32.944Z,14.15
2018-02-25T06:49:59.922Z,14.55
2018-02-25T06:52:27.525Z,12.82
2018-02-25T06:54:54.276Z,13.35
2018-02-25T06:57:21.065Z,14.10
2018-02-25T06:59:47.807Z,14.50
2018-02-25T07:02:14.505Z,14.20
2018-02-25T07:04:41.228Z,15.20
2018-02-25T07:07:07.936Z,13.43
2018-02-25T07:09:34.665Z,14.15
2018-02-25T07:12:01.483Z,11.45
2018-02-25T07:14:28.218Z,13.30
2018-02-25T07:16:54.993Z,12.80
2018-02-25T07:19:21.859Z,13.52
2018-02-25T07:21:48.657Z,14.77
2018-02-25T07:24:15.398Z,13.45
2018-02-25T07:26:42.127Z,14.70
2018-02-25T07:29:08.856Z,13.02
2018-02-25T07:31:35.578Z,14.23
2018-02-25T07:34:03.089Z,12.40
2018-02-25T07:36:30.060Z,14.32
2018-02-25T07:38:56.834Z,14.93
2018-02-25T07:41:23.561Z,12.48
2018-02-25T07:43:50.365Z,14.90
2018-02-25T07:46:17.233Z,14.57
2018-02-25T07:48:44.048Z,12.88
2018-02-25T07:51:10.817Z,13.30
2018-02-25T07:53:38.059Z,14.85
2018-02-25T07:56:04.788Z,13.75
2018-02-25T07:58:31.513Z,13.77
2018-02-25T08:00:58.237Z,13.85
2018-02-25T08:03:24.960Z,13.32
2018-02-25T08:05:51.665Z,13.85
2018-02-25T08:08:18.453Z,12.45
2018-02-25T08:10:45.232Z,13.82
2018-02-25T08:13:11.981Z,12.95
2018-02-25T08:15:38.740Z,12.52
2018-02-25T08:18:05.505Z,14.50
2018-02-25T08:20:32.234Z,13.50
2018-02-25T08:22:59.007Z,12.80
2018-02-25T08:25:25.802Z,12.95
2018-02-25T08:27:52.584Z,13.60
2018-02-25T08:30:19.385Z,12.93
2018-02-25T08:32:46.110Z,13.90
2018-02-25T08:35:12.999Z,12.20
2018-02-25T08:37:39.846Z,13.10
2018-02-25T08:40:06.614Z,13.77
2018-02-25T08:42:34.263Z,13.57
2018-02-25T08:45:01.126Z,13.40
2018-02-25T08:47:27.887Z,12.53
2018-02-25T08:49:54.573Z,13.23
2018-02-25T08:52:21.590Z,12.63
2018-02-25T08:54:48.303Z,12.17
2018-02-25T08:57:15.042Z,12.80
2018-02-25T08:59:41.759Z,12.40
2018-02-25T09:02:08.465Z,12.80
2018-02-25T09:04:35.234Z,12.73
2018-02-25T09:07:02.096Z,11.10
2018-02-25T09:09:28.917Z,12.73
2018-02-25T09:11:55.617Z,13.33
2018-02-25T09:14:22.331Z,11.73
2018-02-25T09:16:49.044Z,12.07
2018-02-25T09:19:15.807Z,12.80
2018-02-25T09:21:42.728Z,11.13
2018-02-25T09:24:09.513Z,12.63
2018-02-25T09:26:36.335Z,13.03
2018-02-25T09:29:03.201Z,13.13
2018-02-25T09:31:30.411Z,12.70
2018-02-25T09:33:57.558Z,13.00
2018-02-25T09:36:24.269Z,11.93
2018-02-25T09:38:51.020Z,13.10
2018-02-25T09:41:18.102Z,11.00
2018-02-25T09:43:44.902Z,12.50
2018-02-25T09:46:11.869Z,11.73
2018-02-25T09:48:38.757Z,10.70
2018-02-25T09:51:05.770Z,11.77
2018-02-25T09:53:32.452Z,12.90
2018-02-25T09:55:59.225Z,11.63
2018-02-25T09:58:27.037Z,11.87
2018-02-25T10:00:53.821Z,11.03
2018-02-25T10:03:20.614Z,12.43
2018-02-25T10:05:47.430Z,11.10
2018-02-25T10:08:14.122Z,11.83
2018-02-25T10:10:41.517Z,10.60
2018-02-25T10:13:08.543Z,11.90
2018-02-25T10:15:35.266Z,10.87
2018-02-25T10:18:02.313Z,11.43
2018-02-25T10:20:29.010Z,10.20
2018-02-25T10:22:55.727Z,10.67
2018-02-25T10:25:22.442Z,11.20
2018-02-25T10:27:49.376Z,10.00
2018-02-25T10:30:17.594Z,10.40
2018-02-25T10:32:44.544Z,10.70
2018-02-25T10:35:11.369Z,11.27
2018-02-25T10:37:38.074Z,11.47
2018-02-25T10:40:04.765Z,10.83
2018-02-25T10:42:31.501Z,12.20
2018-02-25T10:44:59.311Z,10.40
2018-02-25T10:47:26.184Z,10.87
2018-02-25T10:49:53.179Z,10.60
2018-02-25T10:52:20.481Z,10.47
2018-02-25T10:54:47.225Z,11.57
2018-02-25T10:57:14.004Z,11.10
2018-02-25T10:59:41.128Z,10.20
2018-02-25T11:02:08.014Z,10.27
2018-02-25T11:04:34.724Z,10.63
2018-02-25T11:07:05.228Z,9.93
2018-02-25T11:09:32.486Z,10.50
2018-02-25T11:11:59.453Z,11.10
2018-02-25T11:14:26.167Z,8.73
2018-02-25T11:16:52.954Z,9.90
2018-02-25T11:19:19.721Z,9.07
2018-02-25T11:21:46.433Z,9.97
2018-02-25T11:24:13.404Z,11.37
2018-02-25T11:26:40.976Z,9.77
2018-02-25T11:29:07.865Z,9.37
2018-02-25T11:31:34.624Z,9.67
2018-02-25T11:34:01.846Z,9.17
2018-02-25T11:36:29.247Z,9.00
2018-02-25T11:38:56.462Z,9.03
2018-02-25T11:41:23.206Z,8.90
2018-02-25T11:43:49.994Z,8.40
2018-02-25T11:46:16.888Z,9.33
2018-02-25T11:48:43.874Z,9.00
2018-02-25T11:51:10.561Z,8.50
2018-02-25T11:53:37.341Z,9.67
2018-02-25T11:56:04.094Z,9.63
2018-02-25T11:58:30.964Z,8.97
2018-02-25T12:00:57.741Z,8.53
2018-02-25T12:03:24.486Z,8.77
2018-02-25T12:05:52.484Z,8.80
2018-02-25T12:08:19.272Z,8.60
2018-02-25T12:10:45.973Z,8.80
2018-02-25T12:13:12.751Z,8.97
2018-02-25T12:15:39.460Z,8.70
2018-02-25T12:18:06.747Z,8.75
2018-02-25T12:20:33.746Z,7.93
2018-02-25T12:23:00.448Z,7.90
2018-02-25T12:25:27.173Z,8.00
2018-02-25T12:27:54.120Z,8.20
2018-02-25T12:30:21.028Z,7.87
2018-02-25T12:32:47.714Z,8.27
2018-02-25T12:35:14.549Z,7.80
2018-02-25T12:37:42.060Z,9.15
2018-02-25T12:40:12.707Z,7.63
2018-02-25T12:42:39.686Z,7.07
2018-02-25T12:45:06.518Z,8.27
2018-02-25T12:47:33.233Z,8.60
2018-02-25T12:50:00.145Z,8.23
2018-02-25T12:52:26.924Z,6.80
2018-02-25T12:54:53.650Z,7.10
2018-02-25T12:57:20.583Z,8.40
2018-02-25T12:59:48.409Z,7.00
2018-02-25T13:02:15.115Z,7.87
2018-02-25T13:04:41.816Z,7.20
2018-02-25T13:07:09.073Z,7.83
2018-02-25T13:09:36.037Z,7.33
2018-02-25T13:12:02.711Z,8.00
2018-02-25T13:14:29.977Z,8.80
2018-02-25T13:16:56.704Z,7.30
2018-02-25T13:19:23.412Z,8.03
2018-02-25T13:21:50.119Z,7.03
2018-02-25T13:24:17.145Z,7.60
2018-02-25T13:26:43.954Z,6.37
2018-02-25T13:29:10.745Z,7.67
2018-02-25T13:31:37.565Z,7.20
2018-02-25T13:34:04.428Z,6.23
2018-02-25T13:36:31.338Z,6.20
2018-02-25T13:38:58.217Z,7.47
2018-02-25T13:41:24.898Z,6.77
2018-02-25T13:43:51.686Z,7.30
2018-02-25T13:46:18.432Z,6.73
2018-02-25T13:48:45.262Z,7.43
2018-02-25T13:51:12.003Z,7.53
2018-02-25T13:53:38.695Z,6.13
2018-02-25T13:56:05.500Z,7.20
2018-02-25T13:58:32.483Z,7.37
2018-02-25T14:00:59.362Z,7.00
2018-02-25T14:03:26.193Z,5.97
2018-02-25T14:05:52.971Z,7.57
2018-02-25T14:08:19.660Z,6.60
2018-02-25T14:10:46.733Z,6.60
2018-02-25T14:13:13.475Z,7.00
2018-02-25T14:15:40.232Z,8.03
2018-02-25T14:18:07.285Z,7.43
2018-02-25T14:20:34.591Z,6.97
2018-02-25T14:23:01.849Z,7.03
2018-02-25T14:25:28.549Z,7.50
2018-02-25T14:27:55.285Z,7.20
2018-02-25T14:30:23.012Z,7.53
2018-02-25T14:32:49.803Z,7.20
2018-02-25T14:35:16.606Z,6.50
2018-02-25T14:37:43.486Z,7.50
2018-02-25T14:40:10.237Z,7.23
2018-02-25T14:42:36.965Z,6.77
2018-02-25T14:45:04.460Z,7.10
2018-02-25T14:47:32.054Z,6.43
2018-02-25T14:49:59.042Z,6.90
2018-02-25T14:52:25.777Z,7.37
2018-02-25T14:54:52.535Z,7.00
2018-02-25T14:57:19.553Z,6.70
2018-02-25T14:59:46.520Z,7.77
2018-02-25T15:02:13.781Z,7.20
2018-02-25T15:04:40.557Z,6.43
2018-02-25T15:07:07.279Z,6.63
2018-02-25T15:09:34.221Z,7.43
2018-02-25T15:12:00.972Z,6.00
2018-02-25T15:14:27.697Z,6.43
2018-02-25T15:16:54.490Z,6.80
2018-02-25T15:19:21.224Z,5.70
2018-02-25T15:21:48.002Z,7.23
2018-02-25T15:24:14.810Z,5.33
2018-02-25T15:26:41.657Z,6.37
2018-02-25T15:29:08.700Z,7.67
2018-02-25T15:31:35.898Z,5.90
2018-02-25T15:34:02.573Z,6.10
2018-02-25T15:36:29.277Z,5.80
2018-02-25T15:38:55.990Z,6.67
2018-02-25T15:41:23.067Z,7.70
2018-02-25T15:43:49.926Z,6.30
2018-02-25T15:46:16.653Z,6.87
2018-02-25T15:48:43.412Z,6.47
2018-02-25T15:51:10.664Z,6.40
2018-02-25T15:53:37.351Z,6.87
2018-02-25T15:56:04.062Z,7.07
2018-02-25T15:58:30.845Z,6.90
2018-02-25T16:00:57.702Z,7.43
2018-02-25T16:03:24.729Z,7.17
2018-02-25T16:05:51.431Z,6.80
2018-02-25T16:08:18.158Z,6.20
2018-02-25T16:10:45.000Z,6.90
2018-02-25T16:13:11.790Z,7.67
2018-02-25T16:15:38.505Z,6.23
2018-02-25T16:18:05.198Z,6.85
2018-02-25T16:20:31.891Z,7.17
2018-02-25T16:22:58.604Z,7.97
2018-02-25T16:25:25.316Z,6.43
2018-02-25T16:27:52.041Z,6.40
2018-02-25T16:30:18.793Z,6.93
2018-02-25T16:32:45.528Z,6.43
2018-02-25T16:35:12.336Z,6.53
2018-02-25T16:37:39.056Z,6.70
2018-02-25T16:40:05.849Z,6.53
2018-02-25T16:42:32.564Z,8.45
2018-02-25T16:44:59.301Z,7.32
2018-02-25T16:47:26.042Z,8.07
2018-02-25T16:49:52.800Z,7.30
2018-02-25T16:52:19.633Z,7.70
2018-02-25T16:54:46.371Z,6.87
2018-02-25T16:57:13.113Z,6.30
2018-02-25T16:59:39.852Z,6.45
2018-02-25T17:02:06.543Z,6.97
2018-02-25T17:04:33.426Z,6.10
2018-02-25T17:07:00.149Z,6.50
2018-02-25T17:09:26.862Z,6.90
2018-02-25T17:11:53.569Z,6.55
2018-02-25T17:14:20.278Z,5.45
2018-02-25T17:16:47.155Z,6.43
2018-02-25T17:19:13.861Z,7.30
2018-02-25T17:21:40.617Z,7.45
2018-02-25T17:24:07.379Z,7.05
2018-02-25T17:26:34.116Z,6.60
2018-02-25T17:29:00.874Z,5.30
2018-02-25T17:31:27.650Z,7.23
2018-02-25T17:33:54.472Z,5.70
2018-02-25T17:36:21.382Z,6.10
2018-02-25T17:38:48.093Z,6.10
2018-02-25T17:41:14.833Z,6.72
2018-02-25T17:43:41.569Z,6.50
2018-02-25T17:46:08.302Z,6.65
2018-02-25T17:48:35.014Z,6.57
2018-02-25T17:51:01.728Z,6.83
2018-02-25T17:53:28.445Z,6.80
2018-02-25T17:55:55.217Z,6.85
2018-02-25T17:58:21.884Z,6.03
2018-02-25T18:00:48.813Z,6.60
2018-02-25T18:03:15.810Z,7.00
2018-02-25T18:05:42.517Z,6.87
2018-02-25T18:08:09.334Z,6.10
2018-02-25T18:10:36.144Z,6.90
2018-02-25T18:13:03.089Z,7.15
2018-02-25T18:15:30.059Z,6.72
2018-02-25T18:17:56.939Z,6.95
2018-02-25T18:20:23.722Z,7.22
2018-02-25T18:22:50.410Z,6.93
2018-02-25T18:25:17.260Z,7.15
2018-02-25T18:27:43.981Z,5.90
2018-02-25T18:30:10.743Z,6.12
2018-02-25T18:32:37.615Z,6.10
2018-02-25T18:35:04.343Z,6.95
2018-02-25T18:37:31.143Z,6.65
2018-02-25T18:39:58.065Z,6.37
2018-02-25T18:42:24.793Z,6.43
2018-02-25T18:44:51.475Z,6.35
2018-02-25T18:47:18.305Z,7.45
2018-02-25T18:49:45.008Z,6.60
2018-02-25T18:52:11.762Z,6.18
2018-02-25T18:54:38.488Z,6.82
2018-02-25T18:57:05.182Z,6.80
2018-02-25T18:59:31.905Z,6.80
2018-02-25T19:01:58.605Z,6.25
2018-02-25T19:04:25.333Z,6.65
2018-02-25T19:06:52.075Z,7.70
2018-02-25T19:09:19.146Z,6.83
2018-02-25T19:11:45.951Z,6.45
2018-02-25T19:14:12.676Z,6.53
2018-02-25T19:16:39.469Z,6.80
2018-02-25T19:19:06.258Z,6.85
2018-02-25T19:21:32.976Z,6.60
2018-02-25T19:23:59.711Z,7.32
2018-02-25T19:26:26.417Z,6.95
2018-02-25T19:28:53.212Z,6.40
2018-02-25T19:31:19.950Z,6.50
2018-02-25T19:33:46.666Z,7.12
2018-02-25T19:36:19.004Z,6.35
2018-02-25T19:38:52.310Z,6.20
2018-02-25T19:41:24.728Z,7.45
2018-02-25T19:43:51.434Z,6.90
2018-02-25T19:46:18.349Z,5.93
2018-02-25T19:48:45.107Z,6.60
2018-02-25T19:51:12.004Z,6.90
2018-02-25T19:53:38.823Z,6.03
2018-02-25T19:56:05.768Z,6.82
2018-02-25T19:58:32.630Z,7.05
2018-02-25T20:00:59.415Z,6.85
2018-02-25T20:03:26.125Z,7.30
2018-02-25T20:05:52.842Z,7.05
2018-02-25T20:08:19.662Z,6.85
2018-02-25T20:10:46.462Z,6.97
2018-02-25T20:13:13.177Z,6.72
2018-02-25T20:15:39.923Z,7.30
2018-02-25T20:18:06.688Z,6.62
2018-02-25T20:20:33.462Z,7.12
2018-02-25T20:23:00.194Z,7.53
2018-02-25T20:25:27.173Z,8.00
2018-02-25T20:27:53.883Z,7.28
2018-02-25T20:30:20.600Z,7.30
2018-02-25T20:32:47.526Z,7.70
2018-02-25T20:35:14.286Z,7.35
2018-02-25T20:37:41.234Z,7.05
2018-02-25T20:40:08.397Z,7.43
2018-02-25T20:42:35.232Z,7.05
2018-02-25T20:45:02.091Z,7.20
2018-02-25T20:47:28.811Z,7.22
2018-02-25T20:49:56.422Z,6.62
2018-02-25T20:52:23.098Z,7.15
2018-02-25T20:54:49.937Z,6.70
2018-02-25T20:57:16.834Z,6.22
2018-02-25T20:59:43.967Z,7.40
2018-02-25T21:02:11.799Z,6.82
2018-02-25T21:04:38.893Z,7.10
2018-02-25T21:07:05.685Z,7.22
2018-02-25T21:09:32.383Z,6.35
2018-02-25T21:11:59.078Z,6.90
2018-02-25T21:14:25.805Z,8.35
2018-02-25T21:16:52.772Z,7.10
2018-02-25T21:19:19.596Z,7.30
2018-02-25T21:21:46.451Z,7.35
2018-02-25T21:24:14.404Z,7.95
2018-02-25T21:26:41.144Z,6.65
2018-02-25T21:29:09.517Z,7.55
2018-02-25T21:31:38.895Z,7.12
2018-02-25T21:34:05.908Z,7.53
2018-02-25T21:36:32.674Z,7.68
2018-02-25T21:38:59.371Z,8.23
2018-02-25T21:41:26.399Z,7.22
2018-02-25T21:43:53.242Z,7.43
2018-02-25T21:46:19.922Z,7.85
2018-02-25T21:48:47.062Z,7.45
2018-02-25T21:51:13.777Z,7.60
2018-02-25T21:53:41.426Z,7.40
2018-02-25T21:56:14.053Z,7.75
2018-02-25T21:58:46.570Z,6.70
2018-02-25T22:01:18.798Z,7.15
2018-02-25T22:03:45.550Z,6.75
2018-02-25T22:06:12.413Z,6.30
2018-02-25T22:08:39.282Z,6.90
2018-02-25T22:11:06.176Z,6.35
2018-02-25T22:13:32.932Z,6.97
2018-02-25T22:15:59.675Z,5.82
2018-02-25T22:18:26.389Z,6.35
2018-02-25T22:20:53.145Z,5.10
2018-02-25T22:23:19.967Z,6.37
2018-02-25T22:25:46.745Z,6.70
2018-02-25T22:28:13.450Z,6.50
2018-02-25T22:30:40.337Z,6.53
2018-02-25T22:33:07.967Z,6.47
2018-02-25T22:35:34.810Z,6.12
2018-02-25T22:38:01.780Z,6.45
2018-02-25T22:40:28.476Z,5.43
2018-02-25T22:42:55.798Z,5.97
2018-02-25T22:45:23.464Z,6.68
2018-02-25T22:47:50.253Z,5.53
2018-02-25T22:50:17.005Z,6.25
2018-02-25T22:52:43.750Z,6.15
2018-02-25T22:55:10.453Z,6.30
2018-02-25T22:57:37.241Z,6.22
2018-02-25T23:00:04.241Z,6.15
2018-02-25T23:02:31.329Z,6.25
2018-02-25T23:04:58.086Z,5.80
2018-02-25T23:07:24.918Z,6.03
2018-02-25T23:09:51.609Z,6.15
2018-02-25T23:12:18.542Z,6.05
2018-02-25T23:14:45.282Z,6.47
2018-02-25T23:17:12.164Z,6.25
2018-02-25T23:19:38.876Z,5.90
2018-02-25T23:22:05.980Z,5.70
2018-02-25T23:24:32.746Z,4.65
2018-02-25T23:27:02.771Z,7.03
2018-02-25T23:29:30.240Z,6.30
2018-02-25T23:31:56.945Z,5.87
2018-02-25T23:34:23.660Z,5.50
2018-02-25T23:36:50.387Z,6.25
2018-02-25T23:39:17.197Z,6.30
2018-02-25T23:41:44.168Z,6.43
2018-02-25T23:44:10.842Z,6.43
2018-02-25T23:46:37.562Z,5.70
2018-02-25T23:49:04.283Z,6.75
2018-02-25T23:51:30.960Z,6.53
2018-02-25T23:53:57.647Z,6.22
2018-02-25T23:56:24.384Z,5.93
2018-02-25T23:58:51.078Z,6.22
